Terminal Aerodrome Forecast
Issued by NWS Goodland, KS

Home | Current Version | Previous Version | Text Only | Print | Product List | Glossary On
Versions: 1 2 3 4 5 6 7 8 9 10 11 12 13 14
000
FTUS43 KGLD 140500 AAA
TAFGLD
TAF AMD
KGLD 140501Z 1405/1424 35023G32KT 4SM -SN OVC020
     FM140700 35018G27KT P6SM OVC040
     FM141200 34015KT P6SM BKN060
     FM141500 33019G27KT P6SM SCT080=

USA.gov is the U.S. government's official web portal to all federal, state and local government web resources and services.